KBKT

Allen C Perkinson Blackstone AAF Airport

Blackstone, Virginia, USA
METAR KBKT 170015Z AUTO 36005KT 10SM SCT007 BKN048 OVC060 07/07 A2992 RMK AO1 T00700070
Observed Flight Rules
Dec-17 @ 00:15 UTC (8 minutes ago) Visual Flight Rules
Wind Visibility Clouds
360° at 5 knots 10 miles
  • Scattered at 700' AGL
  • Broken at 4,800' AGL
  • Overcast at 6,000' AGL
Temperatures Readings
Current 7°C / 45°F
Dewpoint 7°C / 45°F
Humidity 100%
Altimeter 29.92" Hg
Pressure 1013 hPa
Elevation 134
METAR KBKT 170015Z AUTO 36005KT 10SM SCT007 BKN048 OVC060 07/07 A2992 RMK AO1 T00700070
Observed Flight Rules
Dec-17 @ 00:15 UTC
(8 minutes ago)
VFR
Wind Visibility
360° at 5 knots 10 miles
Clouds
  • Scattered at 700' AGL
  • Broken at 4,800' AGL
  • Overcast at 6,000' AGL
Temperature Dewpoint
7°C / 45°F 7°C / 45°F
Humidity Altimeter Pressure
100% 29.92" Hg 1013 hPa